sensor_id;sensor_type;location;lat;lon;timestamp;P1;durP1;ratioP1;P2;durP2;ratioP2
62014;SDS011;47970;52.396;9.586;2023-02-04T00:00:11;24.75;;;2.75;;
62014;SDS011;47970;52.396;9.586;2023-02-04T00:02:37;21.15;;;2.70;;
62014;SDS011;47970;52.396;9.586;2023-02-04T00:05:02;19.17;;;2.55;;
62014;SDS011;47970;52.396;9.586;2023-02-04T00:07:28;23.95;;;3.20;;
62014;SDS011;47970;52.396;9.586;2023-02-04T00:09:53;28.40;;;3.13;;
62014;SDS011;47970;52.396;9.586;2023-02-04T00:12:18;22.97;;;3.00;;
62014;SDS011;47970;52.396;9.586;2023-02-04T00:14:43;20.73;;;2.28;;
62014;SDS011;47970;52.396;9.586;2023-02-04T00:17:09;22.47;;;2.90;;
62014;SDS011;47970;52.396;9.586;2023-02-04T00:19:36;19.73;;;2.30;;
62014;SDS011;47970;52.396;9.586;2023-02-04T00:22:02;22.83;;;3.50;;
62014;SDS011;47970;52.396;9.586;2023-02-04T00:24:28;23.50;;;2.65;;
62014;SDS011;47970;52.396;9.586;2023-02-04T00:26:53;18.17;;;1.90;;
62014;SDS011;47970;52.396;9.586;2023-02-04T00:29:18;16.57;;;1.80;;
62014;SDS011;47970;52.396;9.586;2023-02-04T00:31:43;23.50;;;2.93;;
62014;SDS011;47970;52.396;9.586;2023-02-04T00:34:08;19.60;;;2.00;;
62014;SDS011;47970;52.396;9.586;2023-02-04T00:36:34;25.00;;;2.50;;
62014;SDS011;47970;52.396;9.586;2023-02-04T00:38:59;17.05;;;2.25;;
62014;SDS011;47970;52.396;9.586;2023-02-04T00:41:24;30.00;;;3.70;;
62014;SDS011;47970;52.396;9.586;2023-02-04T00:43:49;25.03;;;2.93;;
62014;SDS011;47970;52.396;9.586;2023-02-04T00:46:14;16.93;;;2.20;;
62014;SDS011;47970;52.396;9.586;2023-02-04T00:48:40;15.87;;;2.43;;
62014;SDS011;47970;52.396;9.586;2023-02-04T00:51:05;21.23;;;2.10;;
62014;SDS011;47970;52.396;9.586;2023-02-04T00:53:30;27.10;;;2.27;;
62014;SDS011;47970;52.396;9.586;2023-02-04T00:55:55;17.77;;;1.77;;
62014;SDS011;47970;52.396;9.586;2023-02-04T00:58:20;10.68;;;1.33;;
62014;SDS011;47970;52.396;9.586;2023-02-04T01:00:46;12.23;;;2.20;;
62014;SDS011;47970;52.396;9.586;2023-02-04T01:03:11;9.67;;;1.67;;
62014;SDS011;47970;52.396;9.586;2023-02-04T01:05:36;10.88;;;1.52;;
62014;SDS011;47970;52.396;9.586;2023-02-04T01:08:02;9.83;;;1.70;;
62014;SDS011;47970;52.396;9.586;2023-02-04T01:10:27;12.10;;;1.30;;
62014;SDS011;47970;52.396;9.586;2023-02-04T01:12:52;10.93;;;1.38;;
62014;SDS011;47970;52.396;9.586;2023-02-04T01:15:17;13.63;;;2.13;;
62014;SDS011;47970;52.396;9.586;2023-02-04T01:17:42;12.83;;;1.50;;
62014;SDS011;47970;52.396;9.586;2023-02-04T01:20:08;10.43;;;1.40;;
62014;SDS011;47970;52.396;9.586;2023-02-04T01:22:34;10.98;;;1.20;;
62014;SDS011;47970;52.396;9.586;2023-02-04T01:24:59;14.83;;;1.53;;
62014;SDS011;47970;52.396;9.586;2023-02-04T01:27:24;6.97;;;1.33;;
62014;SDS011;47970;52.396;9.586;2023-02-04T01:29:49;10.52;;;1.50;;
62014;SDS011;47970;52.396;9.586;2023-02-04T01:32:15;9.70;;;1.38;;
62014;SDS011;47970;52.396;9.586;2023-02-04T01:34:40;10.32;;;1.25;;
62014;SDS011;47970;52.396;9.586;2023-02-04T01:37:05;8.57;;;1.03;;
62014;SDS011;47970;52.396;9.586;2023-02-04T01:39:30;10.27;;;1.57;;
62014;SDS011;47970;52.396;9.586;2023-02-04T01:41:56;9.63;;;1.45;;
62014;SDS011;47970;52.396;9.586;2023-02-04T01:44:22;6.57;;;1.35;;
62014;SDS011;47970;52.396;9.586;2023-02-04T01:46:47;9.07;;;1.20;;
62014;SDS011;47970;52.396;9.586;2023-02-04T01:49:12;9.00;;;1.45;;
62014;SDS011;47970;52.396;9.586;2023-02-04T01:51:37;4.68;;;0.82;;
62014;SDS011;47970;52.396;9.586;2023-02-04T01:54:03;10.48;;;1.70;;
62014;SDS011;47970;52.396;9.586;2023-02-04T01:56:29;4.63;;;1.20;;
62014;SDS011;47970;52.396;9.586;2023-02-04T01:58:55;6.38;;;1.10;;
62014;SDS011;47970;52.396;9.586;2023-02-04T02:01:40;19.13;;;1.80;;
62014;SDS011;47970;52.396;9.586;2023-02-04T02:04:06;8.30;;;1.80;;
62014;SDS011;47970;52.396;9.586;2023-02-04T02:06:31;8.32;;;0.93;;
62014;SDS011;47970;52.396;9.586;2023-02-04T02:08:57;6.30;;;1.00;;
62014;SDS011;47970;52.396;9.586;2023-02-04T02:11:22;3.90;;;0.82;;
62014;SDS011;47970;52.396;9.586;2023-02-04T02:13:48;7.18;;;0.95;;
62014;SDS011;47970;52.396;9.586;2023-02-04T02:16:13;5.63;;;1.02;;
62014;SDS011;47970;52.396;9.586;2023-02-04T02:18:38;5.85;;;1.00;;
62014;SDS011;47970;52.396;9.586;2023-02-04T02:21:04;3.63;;;0.65;;
62014;SDS011;47970;52.396;9.586;2023-02-04T02:23:49;2.97;;;0.88;;
62014;SDS011;47970;52.396;9.586;2023-02-04T02:26:16;1.70;;;0.60;;
62014;SDS011;47970;52.396;9.586;2023-02-04T02:28:42;2.50;;;0.52;;
62014;SDS011;47970;52.396;9.586;2023-02-04T02:31:07;1.40;;;0.52;;
62014;SDS011;47970;52.396;9.586;2023-02-04T02:33:32;3.22;;;1.00;;
62014;SDS011;47970;52.396;9.586;2023-02-04T02:35:58;1.33;;;0.70;;
62014;SDS011;47970;52.396;9.586;2023-02-04T02:38:23;4.90;;;0.70;;
62014;SDS011;47970;52.396;9.586;2023-02-04T02:40:48;6.83;;;1.17;;
62014;SDS011;47970;52.396;9.586;2023-02-04T02:43:16;1.58;;;0.57;;
62014;SDS011;47970;52.396;9.586;2023-02-04T02:45:42;0.85;;;0.47;;
62014;SDS011;47970;52.396;9.586;2023-02-04T02:48:08;2.92;;;0.47;;
62014;SDS011;47970;52.396;9.586;2023-02-04T02:50:34;3.15;;;0.80;;
62014;SDS011;47970;52.396;9.586;2023-02-04T02:52:59;3.97;;;0.60;;
62014;SDS011;47970;52.396;9.586;2023-02-04T02:55:25;1.92;;;0.88;;
62014;SDS011;47970;52.396;9.586;2023-02-04T02:57:51;1.02;;;0.60;;
62014;SDS011;47970;52.396;9.586;2023-02-04T03:00:19;2.47;;;0.70;;
62014;SDS011;47970;52.396;9.586;2023-02-04T03:02:44;1.70;;;0.82;;
62014;SDS011;47970;52.396;9.586;2023-02-04T03:05:13;2.67;;;0.70;;
62014;SDS011;47970;52.396;9.586;2023-02-04T03:07:39;1.95;;;0.77;;
62014;SDS011;47970;52.396;9.586;2023-02-04T03:10:04;2.28;;;0.73;;
62014;SDS011;47970;52.396;9.586;2023-02-04T03:12:29;1.20;;;0.80;;
62014;SDS011;47970;52.396;9.586;2023-02-04T03:14:55;1.45;;;0.70;;
62014;SDS011;47970;52.396;9.586;2023-02-04T03:17:20;2.92;;;0.60;;
62014;SDS011;47970;52.396;9.586;2023-02-04T03:19:46;1.40;;;0.60;;
62014;SDS011;47970;52.396;9.586;2023-02-04T03:22:12;0.88;;;0.50;;
62014;SDS011;47970;52.396;9.586;2023-02-04T03:24:37;1.67;;;0.80;;
62014;SDS011;47970;52.396;9.586;2023-02-04T03:27:02;1.00;;;0.40;;
62014;SDS011;47970;52.396;9.586;2023-02-04T03:29:28;0.60;;;0.50;;
62014;SDS011;47970;52.396;9.586;2023-02-04T03:31:53;1.13;;;0.70;;
62014;SDS011;47970;52.396;9.586;2023-02-04T03:34:20;1.70;;;0.68;;
62014;SDS011;47970;52.396;9.586;2023-02-04T03:36:45;0.77;;;0.50;;
62014;SDS011;47970;52.396;9.586;2023-02-04T03:39:10;1.53;;;0.90;;
62014;SDS011;47970;52.396;9.586;2023-02-04T03:41:35;1.05;;;0.40;;
62014;SDS011;47970;52.396;9.586;2023-02-04T03:44:00;2.93;;;0.70;;
62014;SDS011;47970;52.396;9.586;2023-02-04T03:46:25;0.50;;;0.50;;
62014;SDS011;47970;52.396;9.586;2023-02-04T03:48:52;2.00;;;0.70;;
62014;SDS011;47970;52.396;9.586;2023-02-04T03:51:17;0.80;;;0.60;;
62014;SDS011;47970;52.396;9.586;2023-02-04T03:53:42;1.93;;;0.80;;
62014;SDS011;47970;52.396;9.586;2023-02-04T03:56:08;2.37;;;0.70;;
62014;SDS011;47970;52.396;9.586;2023-02-04T03:58:34;3.20;;;0.60;;
62014;SDS011;47970;52.396;9.586;2023-02-04T04:00:59;1.70;;;0.50;;
62014;SDS011;47970;52.396;9.586;2023-02-04T04:03:24;2.30;;;0.67;;
62014;SDS011;47970;52.396;9.586;2023-02-04T04:05:49;3.87;;;0.60;;
62014;SDS011;47970;52.396;9.586;2023-02-04T04:08:15;2.30;;;0.80;;
62014;SDS011;47970;52.396;9.586;2023-02-04T04:10:40;1.05;;;0.52;;
62014;SDS011;47970;52.396;9.586;2023-02-04T04:13:05;4.97;;;0.77;;
62014;SDS011;47970;52.396;9.586;2023-02-04T04:15:30;1.67;;;0.63;;
62014;SDS011;47970;52.396;9.586;2023-02-04T04:17:56;1.33;;;0.60;;
62014;SDS011;47970;52.396;9.586;2023-02-04T04:20:21;2.03;;;0.73;;
62014;SDS011;47970;52.396;9.586;2023-02-04T04:22:49;0.90;;;0.63;;
62014;SDS011;47970;52.396;9.586;2023-02-04T04:25:14;1.52;;;0.82;;
62014;SDS011;47970;52.396;9.586;2023-02-04T04:27:39;0.83;;;0.70;;
62014;SDS011;47970;52.396;9.586;2023-02-04T04:30:05;1.83;;;0.57;;
62014;SDS011;47970;52.396;9.586;2023-02-04T04:32:30;1.17;;;0.70;;
62014;SDS011;47970;52.396;9.586;2023-02-04T04:34:55;6.67;;;1.03;;
62014;SDS011;47970;52.396;9.586;2023-02-04T04:37:20;2.83;;;0.70;;
62014;SDS011;47970;52.396;9.586;2023-02-04T04:39:45;1.50;;;0.80;;
62014;SDS011;47970;52.396;9.586;2023-02-04T04:42:11;2.77;;;0.70;;
62014;SDS011;47970;52.396;9.586;2023-02-04T04:44:36;2.40;;;1.00;;
62014;SDS011;47970;52.396;9.586;2023-02-04T04:47:01;3.70;;;0.85;;
62014;SDS011;47970;52.396;9.586;2023-02-04T04:49:27;1.60;;;0.70;;
62014;SDS011;47970;52.396;9.586;2023-02-04T04:51:52;1.92;;;1.20;;
62014;SDS011;47970;52.396;9.586;2023-02-04T04:54:17;1.50;;;0.70;;
62014;SDS011;47970;52.396;9.586;2023-02-04T04:56:42;1.67;;;0.83;;
62014;SDS011;47970;52.396;9.586;2023-02-04T04:59:08;1.63;;;0.90;;
62014;SDS011;47970;52.396;9.586;2023-02-04T05:01:33;1.00;;;0.70;;
62014;SDS011;47970;52.396;9.586;2023-02-04T05:03:59;3.20;;;1.00;;
62014;SDS011;47970;52.396;9.586;2023-02-04T05:06:24;1.90;;;0.90;;
62014;SDS011;47970;52.396;9.586;2023-02-04T05:08:50;6.15;;;1.50;;
62014;SDS011;47970;52.396;9.586;2023-02-04T05:11:15;4.35;;;2.20;;
62014;SDS011;47970;52.396;9.586;2023-02-04T05:13:40;5.13;;;1.15;;
62014;SDS011;47970;52.396;9.586;2023-02-04T05:16:06;5.03;;;1.00;;
62014;SDS011;47970;52.396;9.586;2023-02-04T05:18:31;3.00;;;1.00;;
62014;SDS011;47970;52.396;9.586;2023-02-04T05:20:56;3.50;;;0.80;;
62014;SDS011;47970;52.396;9.586;2023-02-04T05:23:21;2.30;;;0.93;;
62014;SDS011;47970;52.396;9.586;2023-02-04T05:25:46;4.53;;;0.90;;
62014;SDS011;47970;52.396;9.586;2023-02-04T05:28:12;1.27;;;0.87;;
62014;SDS011;47970;52.396;9.586;2023-02-04T05:30:37;4.13;;;1.03;;
62014;SDS011;47970;52.396;9.586;2023-02-04T05:33:02;1.70;;;0.97;;
62014;SDS011;47970;52.396;9.586;2023-02-04T05:35:27;4.23;;;1.20;;
62014;SDS011;47970;52.396;9.586;2023-02-04T05:37:52;4.57;;;1.03;;
62014;SDS011;47970;52.396;9.586;2023-02-04T05:40:18;1.30;;;0.77;;
62014;SDS011;47970;52.396;9.586;2023-02-04T05:42:43;1.80;;;0.90;;
62014;SDS011;47970;52.396;9.586;2023-02-04T05:45:09;2.60;;;0.87;;
62014;SDS011;47970;52.396;9.586;2023-02-04T05:47:37;3.50;;;0.88;;
62014;SDS011;47970;52.396;9.586;2023-02-04T05:50:02;3.87;;;0.80;;
62014;SDS011;47970;52.396;9.586;2023-02-04T05:52:28;2.75;;;0.75;;
62014;SDS011;47970;52.396;9.586;2023-02-04T05:54:53;6.05;;;1.30;;
62014;SDS011;47970;52.396;9.586;2023-02-04T05:57:18;2.70;;;1.03;;
62014;SDS011;47970;52.396;9.586;2023-02-04T05:59:43;2.17;;;0.93;;
62014;SDS011;47970;52.396;9.586;2023-02-04T06:02:09;2.30;;;0.60;;
62014;SDS011;47970;52.396;9.586;2023-02-04T06:04:34;0.82;;;0.70;;
62014;SDS011;47970;52.396;9.586;2023-02-04T06:06:59;2.92;;;0.82;;
62014;SDS011;47970;52.396;9.586;2023-02-04T06:09:25;2.00;;;1.08;;
62014;SDS011;47970;52.396;9.586;2023-02-04T06:11:50;4.93;;;1.47;;
62014;SDS011;47970;52.396;9.586;2023-02-04T06:14:16;4.23;;;2.00;;
62014;SDS011;47970;52.396;9.586;2023-02-04T06:16:41;7.43;;;1.07;;
62014;SDS011;47970;52.396;9.586;2023-02-04T06:19:06;1.52;;;0.90;;
62014;SDS011;47970;52.396;9.586;2023-02-04T06:21:31;1.65;;;1.00;;
62014;SDS011;47970;52.396;9.586;2023-02-04T06:23:56;2.67;;;1.10;;
62014;SDS011;47970;52.396;9.586;2023-02-04T06:26:22;3.45;;;0.80;;
62014;SDS011;47970;52.396;9.586;2023-02-04T06:28:47;4.13;;;1.10;;
62014;SDS011;47970;52.396;9.586;2023-02-04T06:31:12;4.00;;;1.00;;
62014;SDS011;47970;52.396;9.586;2023-02-04T06:33:37;1.83;;;0.97;;
62014;SDS011;47970;52.396;9.586;2023-02-04T06:36:03;1.70;;;1.00;;
62014;SDS011;47970;52.396;9.586;2023-02-04T06:38:28;3.25;;;1.10;;
62014;SDS011;47970;52.396;9.586;2023-02-04T06:40:54;3.95;;;1.17;;
62014;SDS011;47970;52.396;9.586;2023-02-04T06:43:19;3.28;;;1.10;;
62014;SDS011;47970;52.396;9.586;2023-02-04T06:48:15;3.78;;;1.20;;
62014;SDS011;47970;52.396;9.586;2023-02-04T06:50:40;3.85;;;1.17;;
62014;SDS011;47970;52.396;9.586;2023-02-04T06:53:05;4.78;;;1.20;;
62014;SDS011;47970;52.396;9.586;2023-02-04T06:55:30;4.07;;;1.20;;
62014;SDS011;47970;52.396;9.586;2023-02-04T06:57:56;1.50;;;1.10;;
62014;SDS011;47970;52.396;9.586;2023-02-04T07:00:21;1.63;;;1.20;;
62014;SDS011;47970;52.396;9.586;2023-02-04T07:02:46;3.90;;;1.15;;
62014;SDS011;47970;52.396;9.586;2023-02-04T07:05:11;2.43;;;1.40;;
62014;SDS011;47970;52.396;9.586;2023-02-04T07:07:37;3.15;;;1.35;;
62014;SDS011;47970;52.396;9.586;2023-02-04T07:10:02;4.43;;;1.10;;
62014;SDS011;47970;52.396;9.586;2023-02-04T07:12:27;4.47;;;1.23;;
62014;SDS011;47970;52.396;9.586;2023-02-04T07:14:53;4.07;;;1.38;;
62014;SDS011;47970;52.396;9.586;2023-02-04T07:17:18;5.60;;;1.90;;
62014;SDS011;47970;52.396;9.586;2023-02-04T07:19:43;2.03;;;1.10;;
62014;SDS011;47970;52.396;9.586;2023-02-04T07:22:08;4.73;;;1.33;;
62014;SDS011;47970;52.396;9.586;2023-02-04T07:24:33;2.00;;;1.20;;
62014;SDS011;47970;52.396;9.586;2023-02-04T07:26:59;8.27;;;2.20;;
62014;SDS011;47970;52.396;9.586;2023-02-04T07:29:24;2.80;;;1.43;;
62014;SDS011;47970;52.396;9.586;2023-02-04T07:31:49;8.35;;;2.00;;
62014;SDS011;47970;52.396;9.586;2023-02-04T07:34:18;5.05;;;1.45;;
62014;SDS011;47970;52.396;9.586;2023-02-04T07:36:43;2.88;;;1.60;;
62014;SDS011;47970;52.396;9.586;2023-02-04T07:39:09;3.00;;;1.67;;
62014;SDS011;47970;52.396;9.586;2023-02-04T07:41:34;4.13;;;1.60;;
62014;SDS011;47970;52.396;9.586;2023-02-04T07:44:00;3.83;;;1.90;;
62014;SDS011;47970;52.396;9.586;2023-02-04T07:46:25;2.92;;;1.80;;
62014;SDS011;47970;52.396;9.586;2023-02-04T07:48:51;3.00;;;1.50;;
62014;SDS011;47970;52.396;9.586;2023-02-04T07:51:16;3.90;;;1.60;;
62014;SDS011;47970;52.396;9.586;2023-02-04T07:53:41;5.18;;;1.65;;
62014;SDS011;47970;52.396;9.586;2023-02-04T07:56:07;3.20;;;1.63;;
62014;SDS011;47970;52.396;9.586;2023-02-04T07:58:32;3.65;;;1.67;;
62014;SDS011;47970;52.396;9.586;2023-02-04T08:00:57;5.00;;;1.23;;
62014;SDS011;47970;52.396;9.586;2023-02-04T08:03:22;4.40;;;1.65;;
62014;SDS011;47970;52.396;9.586;2023-02-04T08:05:47;3.13;;;1.40;;
62014;SDS011;47970;52.396;9.586;2023-02-04T08:08:13;6.55;;;1.60;;
62014;SDS011;47970;52.396;9.586;2023-02-04T08:10:39;2.92;;;1.33;;
62014;SDS011;47970;52.396;9.586;2023-02-04T08:13:04;4.60;;;2.05;;
62014;SDS011;47970;52.396;9.586;2023-02-04T08:15:29;3.27;;;1.80;;
62014;SDS011;47970;52.396;9.586;2023-02-04T08:17:54;5.77;;;1.97;;
62014;SDS011;47970;52.396;9.586;2023-02-04T08:20:20;10.13;;;3.80;;
62014;SDS011;47970;52.396;9.586;2023-02-04T08:22:45;5.13;;;2.00;;
62014;SDS011;47970;52.396;9.586;2023-02-04T08:25:10;5.22;;;2.05;;
62014;SDS011;47970;52.396;9.586;2023-02-04T08:27:36;3.72;;;1.70;;
62014;SDS011;47970;52.396;9.586;2023-02-04T08:30:01;5.63;;;1.83;;
62014;SDS011;47970;52.396;9.586;2023-02-04T08:32:27;5.68;;;2.55;;
62014;SDS011;47970;52.396;9.586;2023-02-04T08:34:53;5.07;;;2.60;;
62014;SDS011;47970;52.396;9.586;2023-02-04T08:37:18;4.83;;;2.53;;
62014;SDS011;47970;52.396;9.586;2023-02-04T08:39:43;4.63;;;2.13;;
62014;SDS011;47970;52.396;9.586;2023-02-04T08:42:10;5.85;;;1.90;;
62014;SDS011;47970;52.396;9.586;2023-02-04T08:44:35;4.72;;;2.13;;
62014;SDS011;47970;52.396;9.586;2023-02-04T08:47:01;4.27;;;1.80;;
62014;SDS011;47970;52.396;9.586;2023-02-04T08:49:26;4.30;;;2.03;;
62014;SDS011;47970;52.396;9.586;2023-02-04T08:51:51;4.17;;;1.63;;
62014;SDS011;47970;52.396;9.586;2023-02-04T08:54:16;4.40;;;1.80;;
62014;SDS011;47970;52.396;9.586;2023-02-04T08:56:41;8.15;;;1.73;;
62014;SDS011;47970;52.396;9.586;2023-02-04T08:59:07;6.83;;;1.47;;
62014;SDS011;47970;52.396;9.586;2023-02-04T09:01:32;3.93;;;2.17;;
62014;SDS011;47970;52.396;9.586;2023-02-04T09:03:57;6.37;;;1.97;;
62014;SDS011;47970;52.396;9.586;2023-02-04T09:06:22;3.90;;;1.80;;
62014;SDS011;47970;52.396;9.586;2023-02-04T09:08:47;3.95;;;1.75;;
62014;SDS011;47970;52.396;9.586;2023-02-04T09:11:13;3.15;;;1.40;;
62014;SDS011;47970;52.396;9.586;2023-02-04T09:13:38;5.85;;;1.60;;
62014;SDS011;47970;52.396;9.586;2023-02-04T09:16:04;7.10;;;1.98;;
62014;SDS011;47970;52.396;9.586;2023-02-04T09:18:29;4.63;;;1.90;;
62014;SDS011;47970;52.396;9.586;2023-02-04T09:20:56;5.05;;;1.83;;
62014;SDS011;47970;52.396;9.586;2023-02-04T09:23:21;3.80;;;1.70;;
62014;SDS011;47970;52.396;9.586;2023-02-04T09:25:47;2.88;;;1.77;;
62014;SDS011;47970;52.396;9.586;2023-02-04T09:28:13;7.47;;;1.80;;
62014;SDS011;47970;52.396;9.586;2023-02-04T09:30:38;4.20;;;1.60;;
62014;SDS011;47970;52.396;9.586;2023-02-04T09:33:04;5.80;;;1.63;;
62014;SDS011;47970;52.396;9.586;2023-02-04T09:35:29;5.80;;;1.90;;
62014;SDS011;47970;52.396;9.586;2023-02-04T09:37:54;4.82;;;1.40;;
62014;SDS011;47970;52.396;9.586;2023-02-04T09:40:19;2.75;;;1.42;;
62014;SDS011;47970;52.396;9.586;2023-02-04T09:42:46;4.75;;;1.60;;
62014;SDS011;47970;52.396;9.586;2023-02-04T09:45:17;4.00;;;1.38;;
62014;SDS011;47970;52.396;9.586;2023-02-04T09:47:43;3.15;;;1.20;;
62014;SDS011;47970;52.396;9.586;2023-02-04T09:50:12;2.78;;;1.30;;
62014;SDS011;47970;52.396;9.586;2023-02-04T09:52:38;2.72;;;1.42;;
62014;SDS011;47970;52.396;9.586;2023-02-04T09:55:04;5.77;;;1.50;;
62014;SDS011;47970;52.396;9.586;2023-02-04T09:57:32;3.10;;;1.17;;
62014;SDS011;47970;52.396;9.586;2023-02-04T09:59:58;2.53;;;1.63;;
62014;SDS011;47970;52.396;9.586;2023-02-04T10:02:24;4.82;;;1.25;;
62014;SDS011;47970;52.396;9.586;2023-02-04T10:04:50;2.38;;;1.08;;
62014;SDS011;47970;52.396;9.586;2023-02-04T10:07:16;3.38;;;1.20;;
62014;SDS011;47970;52.396;9.586;2023-02-04T10:09:46;2.50;;;1.02;;
62014;SDS011;47970;52.396;9.586;2023-02-04T10:12:11;2.78;;;1.13;;
62014;SDS011;47970;52.396;9.586;2023-02-04T10:14:37;2.47;;;1.05;;
62014;SDS011;47970;52.396;9.586;2023-02-04T10:17:02;3.50;;;0.95;;
62014;SDS011;47970;52.396;9.586;2023-02-04T10:19:28;2.30;;;1.10;;
62014;SDS011;47970;52.396;9.586;2023-02-04T10:21:54;3.20;;;1.30;;
62014;SDS011;47970;52.396;9.586;2023-02-04T10:24:21;4.60;;;1.00;;
62014;SDS011;47970;52.396;9.586;2023-02-04T10:26:50;2.13;;;0.93;;
62014;SDS011;47970;52.396;9.586;2023-02-04T10:29:16;4.88;;;0.90;;
62014;SDS011;47970;52.396;9.586;2023-02-04T10:31:43;2.05;;;0.80;;
62014;SDS011;47970;52.396;9.586;2023-02-04T10:36:33;1.83;;;0.90;;
62014;SDS011;47970;52.396;9.586;2023-02-04T10:38:59;2.70;;;0.90;;
62014;SDS011;47970;52.396;9.586;2023-02-04T10:41:25;2.70;;;1.00;;
62014;SDS011;47970;52.396;9.586;2023-02-04T10:43:54;3.40;;;0.93;;
62014;SDS011;47970;52.396;9.586;2023-02-04T10:46:19;1.50;;;0.87;;
62014;SDS011;47970;52.396;9.586;2023-02-04T10:48:45;4.75;;;1.20;;
62014;SDS011;47970;52.396;9.586;2023-02-04T10:51:10;2.53;;;0.93;;
62014;SDS011;47970;52.396;9.586;2023-02-04T10:53:36;2.40;;;0.80;;
62014;SDS011;47970;52.396;9.586;2023-02-04T10:56:20;4.78;;;0.93;;
62014;SDS011;47970;52.396;9.586;2023-02-04T10:58:46;6.70;;;1.45;;
62014;SDS011;47970;52.396;9.586;2023-02-04T11:01:12;1.77;;;0.80;;
62014;SDS011;47970;52.396;9.586;2023-02-04T11:03:37;3.63;;;0.90;;
62014;SDS011;47970;52.396;9.586;2023-02-04T11:06:07;4.82;;;1.10;;
62014;SDS011;47970;52.396;9.586;2023-02-04T11:08:35;3.45;;;1.10;;
62014;SDS011;47970;52.396;9.586;2023-02-04T11:11:03;3.15;;;1.05;;
62014;SDS011;47970;52.396;9.586;2023-02-04T11:14:17;4.00;;;1.00;;
62014;SDS011;47970;52.396;9.586;2023-02-04T11:18:48;1.77;;;1.00;;
62014;SDS011;47970;52.396;9.586;2023-02-04T11:21:19;3.45;;;1.30;;
62014;SDS011;47970;52.396;9.586;2023-02-04T11:23:45;1.95;;;0.75;;
62014;SDS011;47970;52.396;9.586;2023-02-04T11:26:14;4.28;;;0.95;;
62014;SDS011;47970;52.396;9.586;2023-02-04T11:28:47;4.43;;;0.90;;
62014;SDS011;47970;52.396;9.586;2023-02-04T11:33:38;2.45;;;1.05;;
62014;SDS011;47970;52.396;9.586;2023-02-04T11:36:05;2.08;;;0.70;;
62014;SDS011;47970;52.396;9.586;2023-02-04T11:38:31;3.05;;;0.90;;
62014;SDS011;47970;52.396;9.586;2023-02-04T11:40:56;2.47;;;0.95;;
62014;SDS011;47970;52.396;9.586;2023-02-04T11:43:21;2.50;;;0.85;;
62014;SDS011;47970;52.396;9.586;2023-02-04T11:45:47;4.13;;;1.00;;
62014;SDS011;47970;52.396;9.586;2023-02-04T11:48:13;1.67;;;0.73;;
62014;SDS011;47970;52.396;9.586;2023-02-04T11:50:39;1.83;;;0.80;;
62014;SDS011;47970;52.396;9.586;2023-02-04T11:53:07;2.25;;;0.90;;
62014;SDS011;47970;52.396;9.586;2023-02-04T11:55:34;1.98;;;1.00;;
62014;SDS011;47970;52.396;9.586;2023-02-04T11:58:00;3.40;;;1.08;;
62014;SDS011;47970;52.396;9.586;2023-02-04T12:00:26;2.92;;;1.30;;
62014;SDS011;47970;52.396;9.586;2023-02-04T12:02:59;5.72;;;1.58;;
62014;SDS011;47970;52.396;9.586;2023-02-04T12:05:35;1.70;;;1.00;;
62014;SDS011;47970;52.396;9.586;2023-02-04T12:08:08;8.60;;;1.38;;
62014;SDS011;47970;52.396;9.586;2023-02-04T12:10:34;3.72;;;1.25;;
62014;SDS011;47970;52.396;9.586;2023-02-04T12:12:59;2.50;;;1.05;;
62014;SDS011;47970;52.396;9.586;2023-02-04T12:15:29;6.03;;;1.20;;
62014;SDS011;47970;52.396;9.586;2023-02-04T12:18:03;4.82;;;1.50;;
62014;SDS011;47970;52.396;9.586;2023-02-04T12:20:29;4.30;;;1.58;;
62014;SDS011;47970;52.396;9.586;2023-02-04T12:22:55;3.38;;;1.13;;
62014;SDS011;47970;52.396;9.586;2023-02-04T12:25:20;4.45;;;1.20;;
62014;SDS011;47970;52.396;9.586;2023-02-04T12:27:45;3.83;;;1.30;;
62014;SDS011;47970;52.396;9.586;2023-02-04T12:30:10;2.43;;;1.30;;
62014;SDS011;47970;52.396;9.586;2023-02-04T12:32:36;2.25;;;1.10;;
62014;SDS011;47970;52.396;9.586;2023-02-04T12:35:02;3.65;;;1.10;;
62014;SDS011;47970;52.396;9.586;2023-02-04T12:37:28;2.38;;;1.20;;
62014;SDS011;47970;52.396;9.586;2023-02-04T12:39:53;2.83;;;1.40;;
62014;SDS011;47970;52.396;9.586;2023-02-04T12:42:19;3.60;;;1.50;;
62014;SDS011;47970;52.396;9.586;2023-02-04T12:44:44;4.55;;;1.33;;
62014;SDS011;47970;52.396;9.586;2023-02-04T12:47:09;2.70;;;1.40;;
62014;SDS011;47970;52.396;9.586;2023-02-04T12:49:34;2.73;;;1.30;;
62014;SDS011;47970;52.396;9.586;2023-02-04T12:52:01;4.88;;;1.10;;
62014;SDS011;47970;52.396;9.586;2023-02-04T12:54:27;4.93;;;1.48;;
62014;SDS011;47970;52.396;9.586;2023-02-04T12:56:52;4.23;;;1.30;;
62014;SDS011;47970;52.396;9.586;2023-02-04T12:59:21;2.70;;;1.35;;
62014;SDS011;47970;52.396;9.586;2023-02-04T13:01:47;2.90;;;1.00;;
62014;SDS011;47970;52.396;9.586;2023-02-04T13:04:12;3.67;;;1.33;;
62014;SDS011;47970;52.396;9.586;2023-02-04T13:06:37;4.20;;;1.23;;
62014;SDS011;47970;52.396;9.586;2023-02-04T13:09:02;2.35;;;1.08;;
62014;SDS011;47970;52.396;9.586;2023-02-04T13:11:27;3.30;;;1.37;;
62014;SDS011;47970;52.396;9.586;2023-02-04T13:13:53;4.10;;;1.73;;
62014;SDS011;47970;52.396;9.586;2023-02-04T13:16:18;1.10;;;0.90;;
62014;SDS011;47970;52.396;9.586;2023-02-04T13:18:46;3.85;;;1.10;;
62014;SDS011;47970;52.396;9.586;2023-02-04T13:21:11;5.40;;;1.30;;
62014;SDS011;47970;52.396;9.586;2023-02-04T13:23:37;2.80;;;1.20;;
62014;SDS011;47970;52.396;9.586;2023-02-04T13:26:02;1.33;;;1.00;;
62014;SDS011;47970;52.396;9.586;2023-02-04T13:28:27;2.53;;;0.73;;
62014;SDS011;47970;52.396;9.586;2023-02-04T13:30:52;4.47;;;1.27;;
62014;SDS011;47970;52.396;9.586;2023-02-04T13:33:17;2.08;;;1.00;;
62014;SDS011;47970;52.396;9.586;2023-02-04T13:35:43;3.00;;;0.80;;
62014;SDS011;47970;52.396;9.586;2023-02-04T13:38:09;3.53;;;1.17;;
62014;SDS011;47970;52.396;9.586;2023-02-04T13:40:34;1.83;;;1.00;;
62014;SDS011;47970;52.396;9.586;2023-02-04T13:42:59;2.73;;;1.10;;
62014;SDS011;47970;52.396;9.586;2023-02-04T13:45:24;2.33;;;1.10;;
62014;SDS011;47970;52.396;9.586;2023-02-04T13:47:50;2.88;;;1.08;;
62014;SDS011;47970;52.396;9.586;2023-02-04T13:50:16;3.40;;;0.98;;
62014;SDS011;47970;52.396;9.586;2023-02-04T13:52:41;2.30;;;1.10;;
62014;SDS011;47970;52.396;9.586;2023-02-04T13:55:06;1.87;;;1.10;;
62014;SDS011;47970;52.396;9.586;2023-02-04T13:57:31;3.85;;;1.30;;
62014;SDS011;47970;52.396;9.586;2023-02-04T13:59:57;1.88;;;1.10;;
62014;SDS011;47970;52.396;9.586;2023-02-04T14:02:22;5.97;;;1.10;;
62014;SDS011;47970;52.396;9.586;2023-02-04T14:04:49;2.45;;;1.10;;
62014;SDS011;47970;52.396;9.586;2023-02-04T14:07:14;3.50;;;1.02;;
62014;SDS011;47970;52.396;9.586;2023-02-04T14:09:39;3.67;;;1.03;;
62014;SDS011;47970;52.396;9.586;2023-02-04T14:12:04;1.93;;;1.00;;
62014;SDS011;47970;52.396;9.586;2023-02-04T14:14:30;3.45;;;1.20;;
62014;SDS011;47970;52.396;9.586;2023-02-04T14:16:55;3.90;;;1.27;;
62014;SDS011;47970;52.396;9.586;2023-02-04T14:19:20;2.47;;;1.10;;
62014;SDS011;47970;52.396;9.586;2023-02-04T14:21:45;2.25;;;1.10;;
62014;SDS011;47970;52.396;9.586;2023-02-04T14:24:12;2.90;;;1.30;;
62014;SDS011;47970;52.396;9.586;2023-02-04T14:26:37;3.13;;;1.20;;
62014;SDS011;47970;52.396;9.586;2023-02-04T14:29:03;3.93;;;1.23;;
62014;SDS011;47970;52.396;9.586;2023-02-04T14:31:28;3.78;;;1.38;;
62014;SDS011;47970;52.396;9.586;2023-02-04T14:33:53;2.03;;;1.00;;
62014;SDS011;47970;52.396;9.586;2023-02-04T14:36:20;2.90;;;1.10;;
62014;SDS011;47970;52.396;9.586;2023-02-04T14:38:46;2.58;;;1.00;;
62014;SDS011;47970;52.396;9.586;2023-02-04T14:41:11;3.42;;;1.00;;
62014;SDS011;47970;52.396;9.586;2023-02-04T14:43:40;2.83;;;1.30;;
62014;SDS011;47970;52.396;9.586;2023-02-04T14:46:05;4.67;;;1.30;;